Time;durP1;ratioP1;P1;durP2;ratioP2;P2;SDS_P1;SDS_P2;PMS_P1;PMS_P2;Temp;Humidity;BMP_temperature;BMP_pressure;BME280_temperature;BME280_humidity;BME280_pressure;Samples;Min_cycle;Max_cycle;Signal;HPM_P1;HPM_P2
2023/03/14 00:02:15;;;;;;;0.70;0.70;;;8.10;67.10;;;8.00;52.36;93211.81;5115949;28;20213;-16
2023/03/14 00:04:42;;;;;;;0.70;0.70;;;8.10;68.00;;;7.94;52.48;93225.75;5116088;28;20684;-16
2023/03/14 00:07:12;;;;;;;0.70;0.70;;;8.10;67.20;;;7.84;53.35;93216.59;5116192;28;20671;-16
2023/03/14 00:09:39;;;;;;;0.68;0.68;;;8.00;67.60;;;7.83;52.86;93235.09;5116047;28;20194;-16
2023/03/14 00:12:07;;;;;;;0.70;0.70;;;8.00;67.50;;;7.80;53.05;93238.13;5132004;27;20649;-16
2023/03/14 00:14:34;;;;;;;0.70;0.70;;;7.90;67.50;;;7.69;54.15;93230.00;5115897;28;20678;-16
2023/03/14 00:17:01;;;;;;;0.70;0.70;;;7.90;67.80;;;7.66;54.11;93233.03;5116473;28;20228;-17
2023/03/14 00:19:28;;;;;;;0.70;0.70;;;7.80;67.90;;;7.62;53.31;93224.03;5115836;28;20190;-16
2023/03/14 00:21:55;;;;;;;0.77;0.77;;;7.80;67.80;;;7.58;53.61;93229.91;5131684;27;20210;-16
2023/03/14 00:24:22;;;;;;;0.70;0.70;;;7.70;67.80;;;7.55;53.25;93222.53;5115588;28;20278;-16
2023/03/14 00:26:49;;;;;;;0.70;0.70;;;7.70;67.80;;;7.52;53.27;93205.50;5115732;28;20209;-16
2023/03/14 00:29:15;;;;;;;0.60;0.60;;;7.70;67.90;;;7.51;53.36;93211.72;5115726;28;20239;-16
2023/03/14 00:31:45;;;;;;;0.70;0.70;;;7.60;67.80;;;7.47;53.63;93213.94;5115551;28;20236;-16
2023/03/14 00:34:12;;;;;;;0.70;0.70;;;7.60;68.00;;;7.45;53.87;93196.91;5115641;28;20630;-16
2023/03/14 00:36:39;;;;;;;0.70;0.70;;;7.60;68.10;;;7.44;53.57;93180.47;5114654;28;20625;-16
2023/03/14 00:39:06;;;;;;;0.60;0.60;;;7.60;68.10;;;7.43;53.60;93204.94;5115570;28;20193;-16
2023/03/14 00:41:33;;;;;;;0.70;0.70;;;7.50;68.00;;;7.44;53.77;93221.41;5114482;28;20584;-18
2023/03/14 00:44:00;;;;;;;0.70;0.70;;;7.60;68.10;;;7.42;53.75;93190.31;5114694;28;20190;-17
2023/03/14 00:46:26;;;;;;;0.70;0.70;;;7.50;68.10;;;7.43;53.81;93214.59;5115445;28;20591;-19
2023/03/14 00:48:54;;;;;;;0.60;0.60;;;7.50;68.10;;;7.39;53.78;93224.66;5115514;28;20188;-20
2023/03/14 00:51:22;;;;;;;0.60;0.60;;;7.50;68.20;;;7.37;54.40;93208.41;5114380;28;20190;-19
2023/03/14 00:53:50;;;;;;;0.60;0.60;;;7.50;68.40;;;7.39;54.30;93216.03;5114476;28;20201;-17
2023/03/14 00:56:17;;;;;;;0.60;0.60;;;7.50;68.30;;;7.40;54.06;93207.19;5131576;27;20202;-17
2023/03/14 00:58:44;;;;;;;0.70;0.70;;;7.50;68.40;;;7.40;54.28;93210.59;5114311;28;20284;-18
2023/03/14 01:01:16;;;;;;;0.60;0.60;;;7.50;68.50;;;7.42;53.87;93220.81;5115617;28;20220;-17
2023/03/14 01:03:45;;;;;;;0.70;0.70;;;7.50;68.40;;;7.39;54.84;93239.50;5114357;28;20214;-17
2023/03/14 01:06:19;;;;;;;0.70;0.70;;;7.50;68.60;;;7.37;55.47;93273.59;5131545;28;20666;-17
2023/03/14 01:08:47;;;;;;;0.70;0.70;;;7.60;69.00;;;7.32;56.33;93286.50;5115179;28;20624;-18
2023/03/14 01:11:27;;;;;;;0.77;0.77;;;7.50;69.30;;;7.25;57.05;93278.72;5131329;28;20585;-17
2023/03/14 01:13:55;;;;;;;0.70;0.70;;;7.50;69.80;;;7.25;57.69;93294.38;5115517;28;20512;-18
2023/03/14 01:16:28;;;;;;;0.65;0.65;;;7.50;70.30;;;7.19;58.42;93287.41;5131299;28;20208;-18
2023/03/14 01:18:55;;;;;;;0.70;0.70;;;7.40;70.80;;;7.19;57.34;93256.91;5115278;28;20189;-17
2023/03/14 01:21:24;;;;;;;0.60;0.60;;;7.40;70.60;;;7.26;57.21;93282.13;5132093;28;20515;-19
2023/03/14 01:23:54;;;;;;;0.60;0.60;;;7.40;70.40;;;7.26;58.46;93309.00;5131244;27;20225;-17
2023/03/14 01:26:24;;;;;;;0.60;0.60;;;7.50;71.20;;;7.25;57.70;93277.91;5114240;28;20251;-18
2023/03/14 01:28:54;;;;;;;0.68;0.68;;;7.40;71.00;;;7.29;58.18;93305.97;5131177;28;20273;-19
2023/03/14 01:31:23;;;;;;;0.70;0.70;;;7.40;71.10;;;7.28;58.45;93301.75;5097578;28;20536;-19
2023/03/14 01:33:51;;;;;;;0.60;0.60;;;7.50;71.20;;;7.30;58.17;93296.31;5115366;28;20239;-17
2023/03/14 01:36:18;;;;;;;0.60;0.60;;;7.40;71.10;;;7.33;58.26;93301.13;5114065;28;20227;-18
2023/03/14 01:38:46;;;;;;;0.60;0.60;;;7.50;71.30;;;7.36;57.64;93291.09;5131212;28;20263;-18
2023/03/14 01:41:21;;;;;;;0.70;0.70;;;7.50;71.00;;;7.43;57.31;93285.00;5114975;28;20522;-17
2023/03/14 01:43:49;;;;;;;0.70;0.70;;;7.50;70.80;;;7.43;56.97;93283.19;5113968;28;20220;-20
2023/03/14 01:46:35;;;;;;;0.70;0.70;;;7.50;70.50;;;7.45;56.37;93275.19;5097253;28;20259;-17
2023/03/14 01:49:29;;;;;;;0.70;0.70;;;7.60;70.50;;;7.45;56.46;93278.56;5113907;28;20190;-18
2023/03/14 01:52:19;;;;;;;0.60;0.60;;;7.60;70.30;;;7.42;56.08;93262.53;5114104;28;20239;-17
2023/03/14 01:54:54;;;;;;;0.60;0.60;;;7.60;70.00;;;7.41;55.93;93256.53;5082575;28;20194;-17
2023/03/14 01:57:28;;;;;;;0.80;0.80;;;7.60;69.90;;;7.40;55.71;93256.72;5117748;28;20197;-16
2023/03/14 02:00:10;;;;;;;0.70;0.70;;;7.50;69.70;;;7.36;55.42;93270.22;5117846;27;20620;-17
2023/03/14 02:02:46;;;;;;;0.70;0.70;;;7.50;69.60;;;7.31;55.91;93267.44;5133649;27;20202;-17
2023/03/14 02:05:22;;;;;;;0.70;0.70;;;7.50;69.70;;;7.29;55.91;93260.84;5117519;28;20213;-18
2023/03/14 02:08:00;;;;;;;0.60;0.60;;;7.50;69.80;;;7.25;56.43;93257.88;5134581;27;20201;-18
2023/03/14 02:10:45;;;;;;;0.60;0.60;;;7.50;69.90;;;7.24;56.73;93276.31;5133155;27;20584;-17
2023/03/14 02:13:17;;;;;;;0.80;0.80;;;7.50;70.30;;;7.27;57.39;93262.88;5100690;28;20222;-17
2023/03/14 02:16:05;;;;;;;0.70;0.70;;;7.50;70.60;;;7.35;56.92;93250.34;5113910;28;20217;-17
2023/03/14 02:19:02;;;;;;;0.60;0.60;;;7.50;70.50;;;7.40;56.59;93230.66;5118055;28;20185;-17
2023/03/14 02:22:18;;;;;;;0.70;0.70;;;7.50;70.30;;;7.39;57.09;93248.13;5117195;28;20243;-17
2023/03/14 02:25:15;;;;;;;0.70;0.70;;;7.60;70.50;;;7.45;56.93;93230.84;5117361;28;20238;-17
2023/03/14 02:27:44;;;;;;;0.60;0.60;;;7.60;70.50;;;7.48;56.45;93243.44;5117119;28;20255;-17
2023/03/14 02:30:14;;;;;;;0.70;0.70;;;7.60;70.30;;;7.50;56.77;93249.25;5100035;28;20243;-17
2023/03/14 02:32:51;;;;;;;0.60;0.60;;;7.60;70.20;;;7.51;56.61;93259.47;5134153;27;20263;-17
2023/03/14 02:35:23;;;;;;;0.70;0.70;;;7.70;70.40;;;7.51;56.54;93249.03;5134239;27;20178;-18
2023/03/14 02:37:55;;;;;;;0.70;0.70;;;7.70;70.30;;;7.57;56.08;93249.16;5117276;28;20208;-17
2023/03/14 02:40:24;;;;;;;0.60;0.60;;;7.70;70.20;;;7.55;56.83;93254.63;5116694;28;20194;-18
2023/03/14 02:42:52;;;;;;;0.60;0.60;;;7.70;70.20;;;7.52;56.40;93237.56;5116787;28;20300;-17
2023/03/14 02:45:35;;;;;;;0.70;0.70;;;7.70;70.20;;;7.53;55.82;93233.97;5116746;28;20607;-17
2023/03/14 02:48:16;;;;;;;0.60;0.60;;;7.70;70.10;;;7.53;56.87;93238.38;5118007;28;20261;-18
2023/03/14 02:50:45;;;;;;;0.70;0.70;;;7.70;70.50;;;7.49;56.70;93237.22;5133491;27;20529;-17
2023/03/14 02:53:18;;;;;;;0.70;0.70;;;7.70;70.30;;;7.44;56.94;93247.50;5099687;28;20213;-17
2023/03/14 02:55:50;;;;;;;0.70;0.70;;;7.70;70.50;;;7.37;57.65;93261.38;5116579;28;20205;-17
2023/03/14 02:58:20;;;;;;;0.77;0.77;;;7.70;70.70;;;7.34;58.28;93259.19;5117294;28;20617;-18
2023/03/14 03:00:52;;;;;;;0.60;0.60;;;7.70;71.00;;;7.32;58.57;93276.88;5116312;28;20557;-18
2023/03/14 03:03:19;;;;;;;0.60;0.60;;;7.60;71.20;;;7.39;58.55;93276.03;5117301;28;20267;-17
2023/03/14 03:05:50;;;;;;;0.70;0.70;;;7.60;71.30;;;7.43;58.63;93280.59;5115478;28;20704;-18
2023/03/14 03:08:20;;;;;;;0.70;0.70;;;7.70;71.50;;;7.54;58.18;93281.72;5116314;28;20292;-17
2023/03/14 03:10:48;;;;;;;0.65;0.65;;;7.70;71.40;;;7.62;57.25;93273.63;5116054;27;20198;-17
2023/03/14 03:13:16;;;;;;;0.60;0.60;;;7.70;71.30;;;7.70;57.17;93280.38;5116205;28;20625;-17
2023/03/14 03:15:47;;;;;;;0.60;0.60;;;7.80;71.10;;;7.75;56.79;93292.78;5116290;28;20216;-17
2023/03/14 03:18:14;;;;;;;0.70;0.70;;;7.90;70.90;;;7.72;56.72;93273.13;5116063;28;20193;-19
2023/03/14 03:20:42;;;;;;;0.60;0.60;;;7.90;70.80;;;7.73;56.45;93248.63;5115849;28;20563;-17
2023/03/14 03:23:09;;;;;;;0.63;0.63;;;7.90;70.60;;;7.71;56.29;93231.59;5115897;28;20222;-18
2023/03/14 03:25:38;;;;;;;0.70;0.70;;;7.90;70.50;;;7.72;56.25;93226.16;5116736;28;20244;-18
2023/03/14 03:28:07;;;;;;;0.70;0.70;;;7.90;70.30;;;7.65;56.72;93234.06;5115888;28;20198;-17
2023/03/14 03:30:39;;;;;;;0.60;0.60;;;7.90;70.40;;;7.62;56.66;93247.53;5116011;28;20277;-17
2023/03/14 03:33:06;;;;;;;0.70;0.70;;;7.90;70.50;;;7.52;56.98;93258.44;5115770;28;20212;-20
2023/03/14 03:35:35;;;;;;;0.70;0.70;;;7.80;70.40;;;7.48;57.05;93259.91;5115739;28;20737;-19
2023/03/14 03:38:02;;;;;;;0.65;0.65;;;7.80;70.50;;;7.44;57.17;93263.94;5132791;27;20199;-17
2023/03/14 03:40:30;;;;;;;0.70;0.70;;;7.80;70.50;;;7.44;56.43;93260.53;5132607;27;20197;-18
2023/03/14 03:42:57;;;;;;;0.70;0.70;;;7.70;70.30;;;7.39;56.37;93270.81;5115507;28;20233;-17
2023/03/14 03:45:25;;;;;;;0.70;0.70;;;7.70;71.20;;;7.33;56.55;93262.81;5132694;27;20284;-17
2023/03/14 03:47:55;;;;;;;0.70;0.70;;;7.60;70.30;;;7.28;56.57;93233.97;5115505;28;20270;-18
2023/03/14 03:50:22;;;;;;;0.60;0.60;;;7.60;70.20;;;7.22;56.27;93208.75;5115293;28;20194;-17
2023/03/14 03:52:49;;;;;;;0.60;0.60;;;7.50;70.10;;;7.17;56.61;93213.78;5115415;28;20241;-18
2023/03/14 03:55:16;;;;;;;0.80;0.80;;;7.50;70.20;;;7.08;58.15;93241.94;5115984;28;20247;-17
2023/03/14 03:57:45;;;;;;;0.70;0.70;;;7.50;71.20;;;7.05;58.61;93244.97;5115330;28;20297;-17
2023/03/14 04:00:13;;;;;;;0.70;0.70;;;7.40;71.40;;;7.11;58.03;93233.69;5116136;28;20204;-16
2023/03/14 04:02:42;;;;;;;0.80;0.80;;;7.40;71.30;;;7.13;58.02;93212.59;5132163;27;20257;-16
2023/03/14 04:05:14;;;;;;;0.70;0.70;;;7.40;71.40;;;7.20;57.47;93206.34;5115232;28;20190;-16
2023/03/14 04:07:50;;;;;;;0.70;0.70;;;7.40;71.20;;;7.22;57.40;93214.75;5133175;27;20375;-16
2023/03/14 04:10:22;;;;;;;0.60;0.60;;;7.40;71.10;;;7.26;56.96;93212.50;5114969;28;20201;-16
2023/03/14 04:13:03;;;;;;;0.70;0.70;;;7.50;71.00;;;7.27;57.24;93216.72;5116612;28;20641;-16
2023/03/14 04:15:32;;;;;;;0.70;0.70;;;7.50;70.90;;;7.19;57.60;93217.78;5115013;28;20292;-16
2023/03/14 04:18:04;;;;;;;0.70;0.70;;;7.50;71.00;;;7.20;57.36;93208.97;5114905;28;20194;-16
2023/03/14 04:20:34;;;;;;;0.60;0.60;;;7.50;70.90;;;7.22;57.11;93206.91;5132474;27;20194;-16
2023/03/14 04:23:02;;;;;;;0.70;0.70;;;7.50;71.10;;;7.18;57.48;93218.78;5115395;28;20213;-16
2023/03/14 04:25:29;;;;;;;0.70;0.70;;;7.50;70.90;;;7.16;57.63;93236.44;5131831;27;20234;-16
2023/03/14 04:27:58;;;;;;;0.80;0.80;;;7.50;71.00;;;7.15;58.05;93236.66;5114821;28;20204;-16
2023/03/14 04:30:28;;;;;;;0.80;0.80;;;7.50;71.30;;;7.16;58.07;93228.63;5114538;27;20637;-16
2023/03/14 04:33:02;;;;;;;0.70;0.70;;;7.50;71.20;;;7.17;58.07;93229.44;5116167;28;20185;-16
2023/03/14 04:35:33;;;;;;;0.80;0.80;;;7.40;71.30;;;7.18;57.56;93225.81;5098308;28;20190;-18
2023/03/14 04:38:05;;;;;;;0.70;0.70;;;7.40;71.30;;;7.21;57.58;93226.19;5131870;27;20217;-18
2023/03/14 04:40:36;;;;;;;0.70;0.70;;;7.50;71.30;;;7.23;57.36;93236.41;5114464;28;20206;-18
2023/03/14 04:43:05;;;;;;;0.70;0.70;;;7.40;71.20;;;7.22;57.44;93221.78;5114902;28;20580;-18
2023/03/14 04:45:33;;;;;;;0.60;0.60;;;7.40;71.10;;;7.21;57.39;93230.59;5131650;27;20194;-18
2023/03/14 04:48:03;;;;;;;0.80;0.80;;;7.40;71.20;;;7.22;57.57;93232.22;5114844;28;20225;-17
2023/03/14 04:50:30;;;;;;;0.60;0.60;;;7.40;71.20;;;7.23;57.63;93223.38;5114420;27;20190;-18
2023/03/14 04:52:57;;;;;;;0.70;0.70;;;7.40;71.20;;;7.27;57.65;93214.09;5115402;28;20202;-19
2023/03/14 04:55:24;;;;;;;0.70;0.70;;;7.40;71.30;;;7.26;57.77;93209.91;5114504;28;20289;-17
2023/03/14 04:57:54;;;;;;;0.60;0.60;;;7.50;71.40;;;7.24;57.74;93224.97;5131517;28;20233;-17
2023/03/14 05:00:22;;;;;;;0.80;0.80;;;7.50;71.40;;;7.24;57.26;93243.22;5131438;28;20217;-18
2023/03/14 05:03:12;;;;;;;0.50;0.50;;;7.40;71.10;;;7.24;56.96;93238.00;5115322;28;20230;-18
2023/03/14 05:06:05;;;;;;;0.70;0.70;;;7.40;71.00;;;7.20;56.99;93226.41;5122622;28;20198;-18
2023/03/14 05:08:32;;;;;;;0.70;0.70;;;7.50;71.00;;;7.20;57.02;93216.78;5115917;28;20247;-19
2023/03/14 05:11:14;;;;;;;0.60;0.60;;;7.40;71.00;;;7.15;56.92;93210.59;5115604;28;20186;-18
2023/03/14 05:13:47;;;;;;;0.60;0.60;;;7.40;71.00;;;7.15;57.20;93208.81;5115905;28;20182;-18
2023/03/14 05:16:26;;;;;;;0.52;0.52;;;7.40;71.00;;;7.12;57.17;93206.59;5115534;28;20190;-18
2023/03/14 05:19:14;;;;;;;0.70;0.70;;;7.40;71.00;;;7.13;57.12;93187.34;5107966;28;20223;-18
2023/03/14 05:22:00;;;;;;;0.70;0.70;;;7.40;71.00;;;7.12;57.32;93190.97;5115398;28;20516;-18
2023/03/14 05:24:36;;;;;;;0.60;0.60;;;7.40;71.10;;;7.11;57.31;93206.84;5115075;28;20233;-18
2023/03/14 05:27:14;;;;;;;0.70;0.70;;;7.40;71.10;;;7.07;58.24;93218.66;5131327;28;20638;-18
2023/03/14 05:30:02;;;;;;;0.70;0.70;;;7.40;71.60;;;7.06;58.48;93223.09;5116906;28;20246;-19
2023/03/14 05:32:41;;;;;;;0.60;0.60;;;7.40;71.70;;;7.12;58.87;93227.47;5119178;28;20171;-18
2023/03/14 05:35:17;;;;;;;0.80;0.80;;;7.50;72.10;;;7.18;60.55;93218.78;5119458;27;20190;-18
2023/03/14 05:37:54;;;;;;;0.70;0.70;;;7.50;72.90;;;7.33;61.71;93215.84;5135258;27;20197;-17
2023/03/14 05:40:34;;;;;;;0.60;0.60;;;7.60;74.20;;;7.53;60.36;93217.50;5118881;28;20515;-18
2023/03/14 05:43:10;;;;;;;0.60;0.60;;;7.60;73.80;;;7.72;60.62;93214.94;5118833;27;20224;-17
2023/03/14 05:46:07;;;;;;;0.70;0.70;;;7.80;74.80;;;7.87;60.68;93209.34;5110123;28;20214;-18
2023/03/14 05:48:48;;;;;;;0.70;0.70;;;7.90;74.10;;;8.03;59.86;93213.97;5118813;28;20584;-19
2023/03/14 05:51:35;;;;;;;0.70;0.70;;;8.10;73.70;;;8.15;60.53;93222.72;5118868;28;20196;-18
2023/03/14 05:54:25;;;;;;;0.80;0.80;;;8.20;73.90;;;8.31;61.42;93223.13;5117737;28;20339;-18
2023/03/14 05:57:10;;;;;;;0.60;0.60;;;8.40;74.80;;;8.47;62.18;93227.78;5119202;28;20188;-18
2023/03/14 05:59:48;;;;;;;0.70;0.70;;;8.50;74.80;;;8.67;61.76;93226.72;5102286;28;20189;-17
2023/03/14 06:02:38;;;;;;;0.70;0.70;;;8.70;75.00;;;8.91;60.92;93224.19;5118016;28;20214;-19
2023/03/14 06:05:16;;;;;;;0.70;0.70;;;8.90;75.00;;;9.05;60.38;93219.56;5117615;28;20193;-17
2023/03/14 06:07:43;;;;;;;0.70;0.70;;;9.00;74.50;;;9.22;59.78;93230.19;5117459;28;20518;-18
2023/03/14 06:10:11;;;;;;;0.70;0.70;;;9.20;74.20;;;9.33;59.75;93237.25;5134616;27;20667;-17
2023/03/14 06:12:38;;;;;;;0.85;0.85;;;9.30;74.00;;;9.42;59.35;93229.84;5118218;28;20194;-18
2023/03/14 06:15:06;;;;;;;0.60;0.60;;;9.50;73.80;;;9.52;59.58;93235.34;5134456;27;20647;-19
2023/03/14 06:17:34;;;;;;;0.70;0.70;;;9.60;73.80;;;9.60;59.51;93229.75;5117282;28;20291;-19
2023/03/14 06:20:06;;;;;;;0.60;0.60;;;9.70;73.60;;;9.67;59.24;93227.03;5117234;28;20537;-19
2023/03/14 06:22:33;;;;;;;0.60;0.60;;;9.80;73.60;;;9.76;59.10;93228.28;5117101;28;20216;-18
2023/03/14 06:25:01;;;;;;;0.80;0.80;;;9.80;73.40;;;9.85;59.11;93231.38;5116940;28;20689;-18
2023/03/14 06:27:28;;;;;;;0.70;0.70;;;10.00;72.30;;;9.86;59.82;93232.16;5134251;27;20254;-19
2023/03/14 06:29:57;;;;;;;0.68;0.68;;;10.00;72.40;;;9.97;59.70;93226.09;5134262;27;20208;-18
2023/03/14 06:32:25;;;;;;;0.70;0.70;;;10.10;72.30;;;10.02;60.06;93207.06;5116935;28;20197;-19
2023/03/14 06:34:57;;;;;;;0.63;0.63;;;10.20;72.60;;;10.12;59.92;93212.53;5134362;27;20185;-18
2023/03/14 06:37:24;;;;;;;0.60;0.60;;;10.20;72.60;;;10.22;59.90;93217.19;5116911;27;20528;-18
2023/03/14 06:39:52;;;;;;;0.60;0.60;;;10.40;72.70;;;10.32;59.90;93220.00;5133530;27;20204;-18
2023/03/14 06:42:35;;;;;;;0.60;0.60;;;10.40;72.70;;;10.43;60.35;93215.00;5116725;28;20209;-18
2023/03/14 06:45:02;;;;;;;0.60;0.60;;;10.60;72.90;;;10.52;60.14;93210.97;5118247;27;20216;-20
2023/03/14 06:47:29;;;;;;;0.60;0.60;;;10.60;72.90;;;10.65;60.66;93223.03;5117697;28;20186;-18
2023/03/14 06:49:57;;;;;;;0.70;0.70;;;10.80;73.30;;;10.75;60.20;93212.72;5116694;28;20219;-18
2023/03/14 06:52:24;;;;;;;0.73;0.73;;;10.90;73.20;;;10.83;60.17;93214.97;5133696;27;20197;-18
2023/03/14 06:54:51;;;;;;;0.60;0.60;;;10.90;73.10;;;10.93;60.27;93209.09;5117600;28;20270;-18
2023/03/14 06:57:21;;;;;;;0.70;0.70;;;11.00;73.20;;;11.01;60.40;93211.34;5133671;27;20197;-18
2023/03/14 06:59:48;;;;;;;0.60;0.60;;;11.10;73.20;;;11.12;60.42;93206.25;5133586;27;20201;-18
2023/03/14 07:02:15;;;;;;;0.60;0.60;;;11.30;73.40;;;11.25;59.89;93200.69;5116407;28;20207;-19
2023/03/14 07:04:43;;;;;;;0.80;0.80;;;11.30;73.10;;;11.34;59.96;93209.00;5099568;28;20229;-17
2023/03/14 07:07:10;;;;;;;0.60;0.60;;;11.50;73.10;;;11.44;59.80;93195.22;5133500;27;20280;-18
2023/03/14 07:09:37;;;;;;;0.80;0.80;;;11.60;73.10;;;11.52;59.47;93190.38;5099402;28;20528;-17
2023/03/14 07:12:05;;;;;;;0.80;0.80;;;11.60;72.80;;;11.61;59.30;93185.50;5133243;27;20190;-18
2023/03/14 07:14:32;;;;;;;0.60;0.60;;;11.70;72.70;;;11.65;59.11;93183.97;5116243;28;20232;-18
2023/03/14 07:17:00;;;;;;;0.57;0.57;;;11.80;72.60;;;11.68;58.89;93199.25;5116177;27;20197;-18
2023/03/14 07:19:27;;;;;;;0.70;0.70;;;11.80;72.50;;;11.76;58.76;93198.06;5116099;28;20604;-17
2023/03/14 07:21:54;;;;;;;0.70;0.70;;;11.90;72.50;;;11.81;58.75;93213.88;5115890;28;20652;-18
2023/03/14 07:24:24;;;;;;;0.60;0.60;;;12.00;72.40;;;11.89;58.39;93212.69;5115787;28;20248;-18
2023/03/14 07:26:52;;;;;;;0.60;0.60;;;12.00;72.20;;;11.93;58.44;93216.41;5115977;28;20619;-18
2023/03/14 07:29:20;;;;;;;0.60;0.60;;;12.10;72.00;;;12.01;58.11;93218.66;5115904;28;20190;-18
2023/03/14 07:31:47;;;;;;;0.68;0.68;;;12.20;72.10;;;12.04;57.95;93216.59;5115684;28;20217;-18
2023/03/14 07:34:19;;;;;;;0.70;0.70;;;12.10;71.90;;;12.08;57.49;93207.97;5115839;28;20295;-18
2023/03/14 07:36:46;;;;;;;0.60;0.60;;;12.20;71.70;;;12.13;57.86;93213.31;5132862;27;20221;-18
2023/03/14 07:39:13;;;;;;;0.60;0.60;;;12.30;71.60;;;12.14;57.81;93199.09;5115730;28;20244;-18
2023/03/14 07:41:59;;;;;;;0.50;0.50;;;12.30;71.50;;;12.20;57.84;93199.97;5115584;27;20254;-18
2023/03/14 07:44:42;;;;;;;0.60;0.60;;;12.40;71.50;;;12.27;57.26;93200.59;5132967;27;20213;-16
2023/03/14 07:47:09;;;;;;;0.60;0.60;;;12.50;71.50;;;12.36;57.13;93210.69;5115770;28;20194;-16
2023/03/14 07:49:38;;;;;;;0.60;0.60;;;12.50;71.30;;;12.41;56.98;93205.47;5115463;28;20201;-17
2023/03/14 07:52:05;;;;;;;0.68;0.68;;;12.50;71.20;;;12.41;56.94;93187.84;5115925;28;20193;-18
2023/03/14 07:54:32;;;;;;;0.60;0.60;;;12.70;71.30;;;12.51;56.88;93195.06;5132710;27;20193;-17
2023/03/14 07:57:00;;;;;;;0.50;0.50;;;12.70;71.10;;;12.56;56.49;93189.06;5116402;28;20190;-17
2023/03/14 07:59:27;;;;;;;0.60;0.60;;;12.80;71.00;;;12.59;56.36;93185.97;5116346;28;20190;-16
2023/03/14 08:01:54;;;;;;;0.63;0.63;;;12.70;70.70;;;12.58;56.16;93179.09;5116276;28;20242;-18
2023/03/14 08:04:21;;;;;;;0.60;0.60;;;12.80;70.80;;;12.59;56.30;93178.84;5116675;28;20532;-16
2023/03/14 08:06:48;;;;;;;0.60;0.60;;;12.80;70.70;;;12.61;56.37;93174.16;5116192;28;20209;-16
2023/03/14 08:09:15;;;;;;;0.60;0.60;;;12.80;70.70;;;12.65;56.42;93182.34;5116116;27;20262;-17
2023/03/14 08:11:42;;;;;;;0.60;0.60;;;12.80;70.70;;;12.72;56.14;93195.28;5116113;28;20232;-17
2023/03/14 08:14:10;;;;;;;0.60;0.60;;;12.90;70.60;;;12.78;56.03;93192.47;5116023;28;20199;-18
2023/03/14 08:16:38;;;;;;;0.70;0.70;;;12.90;70.50;;;12.79;55.68;93186.19;5115164;28;20545;-19
2023/03/14 08:19:05;;;;;;;0.60;0.60;;;13.00;70.30;;;12.78;55.55;93184.59;5115949;28;20663;-17
2023/03/14 08:21:32;;;;;;;0.50;0.50;;;13.00;70.20;;;12.79;55.25;93186.19;5116033;28;20197;-17
2023/03/14 08:24:00;;;;;;;0.60;0.60;;;13.00;70.10;;;12.82;55.29;93185.66;5115918;27;20222;-17
2023/03/14 08:26:27;;;;;;;0.63;0.63;;;13.00;70.10;;;12.84;55.38;93177.53;5116134;28;20178;-17
2023/03/14 08:28:54;;;;;;;0.70;0.70;;;13.10;70.10;;;12.84;55.49;93182.81;5116051;27;20203;-17
2023/03/14 08:31:21;;;;;;;0.60;0.60;;;13.10;70.00;;;12.86;55.24;93209.66;5115523;28;20200;-17
2023/03/14 08:33:49;;;;;;;0.60;0.60;;;13.10;69.90;;;12.86;55.41;93219.38;5114834;28;20631;-17
2023/03/14 08:36:16;;;;;;;0.50;0.50;;;13.10;69.90;;;12.88;55.37;93220.72;5115900;28;20209;-17
2023/03/14 08:38:43;;;;;;;0.60;0.60;;;13.20;69.80;;;12.89;55.29;93219.69;5115671;28;20276;-16
2023/03/14 08:41:10;;;;;;;0.60;0.60;;;13.10;69.90;;;12.94;55.25;93230.25;5115914;28;20196;-17
2023/03/14 08:43:37;;;;;;;0.60;0.60;;;13.10;69.90;;;12.95;55.39;93228.41;5131495;27;20532;-17
2023/03/14 08:46:05;;;;;;;0.60;0.60;;;13.20;70.00;;;12.97;55.21;93245.56;5115825;28;20602;-17
2023/03/14 08:48:32;;;;;;;0.70;0.70;;;13.20;69.90;;;12.97;55.08;93232.41;5115518;28;20189;-17
2023/03/14 08:51:07;;;;;;;0.60;0.60;;;13.20;69.90;;;13.02;55.42;93241.38;5116020;28;20193;-17
2023/03/14 08:53:34;;;;;;;0.50;0.50;;;13.20;69.80;;;13.02;54.99;93241.38;5115784;28;20181;-17
2023/03/14 08:56:01;;;;;;;0.50;0.50;;;13.30;69.70;;;13.00;55.25;93241.63;5132147;27;20632;-17
2023/03/14 08:58:29;;;;;;;0.60;0.60;;;13.30;69.70;;;13.04;55.24;93240.09;5115440;28;20205;-18
2023/03/14 09:00:57;;;;;;;0.60;0.60;;;13.20;69.70;;;13.04;55.05;93236.69;5115635;27;20228;-18
2023/03/14 09:03:25;;;;;;;0.50;0.50;;;13.30;69.70;;;13.09;55.30;93249.88;5115299;28;20185;-19
2023/03/14 09:05:52;;;;;;;0.50;0.50;;;13.30;69.70;;;13.11;54.86;93251.22;5119572;28;20213;-19
2023/03/14 09:08:20;;;;;;;0.50;0.50;;;13.40;69.50;;;13.18;54.96;93255.50;5119573;28;20629;-18
2023/03/14 09:10:47;;;;;;;0.60;0.60;;;13.40;69.60;;;13.18;54.96;93243.09;5118721;28;20260;-18
2023/03/14 09:13:14;;;;;;;0.60;0.60;;;13.50;69.60;;;13.26;54.73;93244.50;5119563;28;20617;-18
2023/03/14 09:15:42;;;;;;;0.60;0.60;;;13.50;69.60;;;13.30;54.54;93242.97;5135728;27;20613;-18
2023/03/14 09:18:09;;;;;;;0.60;0.60;;;13.50;69.40;;;13.32;54.50;93230.34;5119742;28;20211;-19
2023/03/14 09:20:36;;;;;;;0.70;0.70;;;13.50;69.30;;;13.35;54.70;93218.53;5119926;28;20194;-17
2023/03/14 09:23:03;;;;;;;0.50;0.50;;;13.60;70.30;;;13.37;54.44;93216.44;5119181;28;20676;-17
2023/03/14 09:25:30;;;;;;;0.60;0.60;;;13.70;69.10;;;13.38;53.90;93210.16;5119093;28;20247;-17
2023/03/14 09:27:57;;;;;;;0.70;0.70;;;13.70;69.00;;;13.47;53.83;93211.28;5119222;28;20193;-17
2023/03/14 09:30:24;;;;;;;0.57;0.57;;;13.70;69.10;;;13.48;53.10;93218.13;5119215;28;20191;-17
2023/03/14 09:32:51;;;;;;;0.50;0.50;;;13.70;68.40;;;13.49;51.73;93234.72;5119061;28;20189;-17
2023/03/14 09:35:18;;;;;;;0.70;0.70;;;13.80;67.70;;;13.47;51.78;93234.19;5119113;28;20201;-17
2023/03/14 09:37:45;;;;;;;0.60;0.60;;;13.70;67.60;;;13.47;51.85;93248.13;5119334;28;20258;-17
2023/03/14 09:40:15;;;;;;;0.57;0.57;;;13.70;67.50;;;13.47;51.61;93250.78;5118971;28;20196;-17
2023/03/14 09:42:42;;;;;;;0.60;0.60;;;13.70;67.50;;;13.47;51.38;93256.03;5119009;28;20197;-17
2023/03/14 09:45:31;;;;;;;0.60;0.60;;;13.70;67.10;;;13.44;50.99;93267.09;5134925;27;20217;-17
2023/03/14 09:47:59;;;;;;;0.50;0.50;;;13.70;66.90;;;13.41;50.98;93271.00;5118317;28;20178;-17
2023/03/14 09:50:43;;;;;;;0.60;0.60;;;13.70;66.90;;;13.45;51.54;93260.75;5134932;27;20284;-17
2023/03/14 09:53:17;;;;;;;0.50;0.50;;;13.70;67.20;;;13.52;51.32;93263.19;5118772;28;20180;-17
2023/03/14 09:55:47;;;;;;;0.50;0.50;;;13.70;67.20;;;13.57;51.17;93265.88;5119013;28;20178;-17
2023/03/14 09:58:20;;;;;;;0.80;0.80;;;13.80;67.10;;;13.62;51.20;93263.28;5117836;28;20177;-17
2023/03/14 10:00:49;;;;;;;0.40;0.40;;;13.90;67.00;;;13.61;51.68;93248.53;5118055;28;20185;-17
2023/03/14 10:03:35;;;;;;;0.80;0.80;;;13.80;67.40;;;13.57;51.50;93250.88;5134785;27;20201;-17
2023/03/14 10:06:08;;;;;;;0.60;0.60;;;13.80;67.40;;;13.55;52.15;93257.41;5119053;28;20209;-17
2023/03/14 10:08:39;;;;;;;0.60;0.60;;;13.80;67.40;;;13.49;51.95;93253.16;5117671;28;20609;-17
2023/03/14 10:11:07;;;;;;;0.60;0.60;;;13.80;67.30;;;13.42;52.01;93242.84;5118437;28;20493;-17
2023/03/14 10:13:34;;;;;;;0.63;0.63;;;13.70;67.20;;;13.42;51.73;93250.75;5118292;28;20189;-17
2023/03/14 10:16:06;;;;;;;0.60;0.60;;;13.70;66.90;;;13.34;51.70;93251.16;5118117;28;20267;-17
2023/03/14 10:18:36;;;;;;;0.55;0.55;;;13.60;67.10;;;13.26;51.60;93247.16;5118671;28;20281;-17
2023/03/14 10:21:26;;;;;;;0.60;0.60;;;13.50;67.20;;;13.26;51.40;93244.50;5118249;28;20189;-18
2023/03/14 10:23:53;;;;;;;0.40;0.40;;;13.50;67.20;;;13.24;51.71;93242.13;5116870;28;20182;-19
2023/03/14 10:26:33;;;;;;;0.68;0.68;;;13.50;67.20;;;13.28;51.46;93245.84;5118431;28;20178;-20
2023/03/14 10:29:13;;;;;;;0.50;0.50;;;13.50;66.90;;;13.35;50.42;93234.31;5118234;28;20185;-19
2023/03/14 10:32:19;;;;;;;0.50;0.50;;;13.50;66.70;;;13.37;50.61;93246.19;5118011;28;20186;-18
2023/03/14 10:35:24;;;;;;;0.50;0.50;;;13.60;66.50;;;13.41;50.68;93259.69;5115259;27;20270;-18
2023/03/14 10:38:00;;;;;;;0.60;0.60;;;13.60;66.80;;;13.37;50.16;93275.16;5118101;28;20189;-18
2023/03/14 10:40:32;;;;;;;0.70;0.70;;;13.60;66.20;;;13.35;50.45;93268.56;5118432;28;20185;-19
2023/03/14 10:43:00;;;;;;;0.55;0.55;;;13.60;66.30;;;13.32;50.68;93256.69;5117063;28;20189;-19
2023/03/14 10:45:40;;;;;;;0.75;0.75;;;13.50;66.40;;;13.29;51.27;93265.06;5116710;28;20217;-20
2023/03/14 10:48:36;;;;;;;0.60;0.60;;;13.50;66.90;;;13.27;51.51;93267.16;5117131;28;20589;-17